sensor_id;sensor_type;location;lat;lon;timestamp;pressure;altitude;pressure_sealevel;temperature;humidity
76866;BME280;66647;52.124;5.416;2024-03-08T00:02:07;102064.13;;;2.58;100.00
76866;BME280;66647;52.124;5.416;2024-03-08T00:04:36;102058.94;;;2.56;100.00
76866;BME280;66647;52.124;5.416;2024-03-08T00:07:03;102060.00;;;2.55;100.00
76866;BME280;66647;52.124;5.416;2024-03-08T00:09:30;102055.66;;;2.54;100.00
76866;BME280;66647;52.124;5.416;2024-03-08T00:12:02;102056.13;;;2.51;100.00
76866;BME280;66647;52.124;5.416;2024-03-08T00:14:32;102056.38;;;2.50;100.00
76866;BME280;66647;52.124;5.416;2024-03-08T00:16:59;102052.25;;;2.47;100.00
76866;BME280;66647;52.124;5.416;2024-03-08T00:19:26;102054.38;;;2.45;100.00
76866;BME280;66647;52.124;5.416;2024-03-08T00:21:53;102057.34;;;2.44;100.00
76866;BME280;66647;52.124;5.416;2024-03-08T00:27:37;102048.28;;;2.38;100.00
76866;BME280;66647;52.124;5.416;2024-03-08T00:30:05;102050.66;;;2.34;100.00
76866;BME280;66647;52.124;5.416;2024-03-08T00:32:35;102058.78;;;2.34;100.00
76866;BME280;66647;52.124;5.416;2024-03-08T00:35:12;102052.19;;;2.30;100.00
76866;BME280;66647;52.124;5.416;2024-03-08T00:37:40;102041.06;;;2.27;100.00
76866;BME280;66647;52.124;5.416;2024-03-08T00:44:45;102041.19;;;2.20;100.00
76866;BME280;66647;52.124;5.416;2024-03-08T00:47:38;102044.13;;;2.19;100.00
76866;BME280;66647;52.124;5.416;2024-03-08T00:54:22;102033.22;;;2.14;100.00
76866;BME280;66647;52.124;5.416;2024-03-08T00:56:49;102031.22;;;2.09;100.00
76866;BME280;66647;52.124;5.416;2024-03-08T00:59:33;102021.69;;;2.07;100.00
76866;BME280;66647;52.124;5.416;2024-03-08T01:02:05;102016.53;;;2.05;100.00
76866;BME280;66647;52.124;5.416;2024-03-08T01:04:35;102015.13;;;2.02;100.00
76866;BME280;66647;52.124;5.416;2024-03-08T01:07:05;102016.44;;;2.00;100.00
76866;BME280;66647;52.124;5.416;2024-03-08T01:09:37;102003.38;;;1.97;100.00
76866;BME280;66647;52.124;5.416;2024-03-08T01:12:29;101992.78;;;1.95;100.00
76866;BME280;66647;52.124;5.416;2024-03-08T01:15:35;101994.94;;;1.93;100.00
76866;BME280;66647;52.124;5.416;2024-03-08T01:18:01;101994.38;;;1.91;100.00
76866;BME280;66647;52.124;5.416;2024-03-08T01:20:29;101991.06;;;1.89;100.00
76866;BME280;66647;52.124;5.416;2024-03-08T01:22:55;101985.09;;;1.87;100.00
76866;BME280;66647;52.124;5.416;2024-03-08T01:25:37;101985.31;;;1.86;100.00
76866;BME280;66647;52.124;5.416;2024-03-08T01:28:05;101981.22;;;1.83;100.00
76866;BME280;66647;52.124;5.416;2024-03-08T01:30:34;101985.44;;;1.79;100.00
76866;BME280;66647;52.124;5.416;2024-03-08T01:33:06;101985.69;;;1.78;100.00
76866;BME280;66647;52.124;5.416;2024-03-08T01:35:33;101976.16;;;1.75;100.00
76866;BME280;66647;52.124;5.416;2024-03-08T01:38:02;101971.81;;;1.74;100.00
76866;BME280;66647;52.124;5.416;2024-03-08T01:40:34;101965.25;;;1.70;100.00
76866;BME280;66647;52.124;5.416;2024-03-08T01:43:35;101969.25;;;1.67;100.00
76866;BME280;66647;52.124;5.416;2024-03-08T01:46:08;101957.84;;;1.65;100.00
76866;BME280;66647;52.124;5.416;2024-03-08T01:48:38;101960.78;;;1.64;100.00
76866;BME280;66647;52.124;5.416;2024-03-08T01:51:10;101958.59;;;1.61;100.00
76866;BME280;66647;52.124;5.416;2024-03-08T01:53:46;101955.31;;;1.59;100.00
76866;BME280;66647;52.124;5.416;2024-03-08T01:56:17;101952.03;;;1.57;100.00
76866;BME280;66647;52.124;5.416;2024-03-08T01:58:45;101947.09;;;1.54;100.00
76866;BME280;66647;52.124;5.416;2024-03-08T02:01:14;101946.97;;;1.49;100.00
76866;BME280;66647;52.124;5.416;2024-03-08T02:03:42;101947.44;;;1.46;100.00
76866;BME280;66647;52.124;5.416;2024-03-08T02:06:12;101947.09;;;1.42;100.00
76866;BME280;66647;52.124;5.416;2024-03-08T02:08:45;101954.97;;;1.44;100.00
76866;BME280;66647;52.124;5.416;2024-03-08T02:11:13;101943.00;;;1.40;100.00
76866;BME280;66647;52.124;5.416;2024-03-08T02:13:40;101940.75;;;1.37;100.00
76866;BME280;66647;52.124;5.416;2024-03-08T02:16:10;101945.56;;;1.34;100.00
76866;BME280;66647;52.124;5.416;2024-03-08T02:18:37;101937.72;;;1.33;100.00
76866;BME280;66647;52.124;5.416;2024-03-08T02:21:09;101933.59;;;1.30;100.00
76866;BME280;66647;52.124;5.416;2024-03-08T02:23:41;101931.97;;;1.29;100.00
76866;BME280;66647;52.124;5.416;2024-03-08T02:26:17;101938.69;;;1.27;100.00
76866;BME280;66647;52.124;5.416;2024-03-08T02:28:44;101927.53;;;1.23;100.00
76866;BME280;66647;52.124;5.416;2024-03-08T02:31:14;101918.84;;;1.21;100.00
76866;BME280;66647;52.124;5.416;2024-03-08T02:33:44;101923.41;;;1.21;100.00
76866;BME280;66647;52.124;5.416;2024-03-08T02:36:24;101916.00;;;1.16;100.00
76866;BME280;66647;52.124;5.416;2024-03-08T02:39:33;101920.25;;;1.12;100.00
76866;BME280;66647;52.124;5.416;2024-03-08T02:42:00;101909.91;;;1.09;100.00
76866;BME280;66647;52.124;5.416;2024-03-08T02:44:31;101900.16;;;1.08;100.00
76866;BME280;66647;52.124;5.416;2024-03-08T02:47:00;101899.59;;;1.06;100.00
76866;BME280;66647;52.124;5.416;2024-03-08T02:49:33;101898.53;;;1.07;100.00
76866;BME280;66647;52.124;5.416;2024-03-08T02:52:02;101893.00;;;1.02;100.00
76866;BME280;66647;52.124;5.416;2024-03-08T02:54:28;101891.94;;;1.03;100.00
76866;BME280;66647;52.124;5.416;2024-03-08T02:56:55;101894.28;;;0.99;100.00
76866;BME280;66647;52.124;5.416;2024-03-08T02:59:23;101885.06;;;0.95;100.00
76866;BME280;66647;52.124;5.416;2024-03-08T03:01:50;101889.03;;;0.93;100.00
76866;BME280;66647;52.124;5.416;2024-03-08T03:04:17;101883.66;;;0.93;100.00
76866;BME280;66647;52.124;5.416;2024-03-08T03:10:18;101882.47;;;0.89;100.00
76866;BME280;66647;52.124;5.416;2024-03-08T03:12:45;101875.41;;;0.88;100.00
76866;BME280;66647;52.124;5.416;2024-03-08T03:15:13;101875.91;;;0.85;100.00
76866;BME280;66647;52.124;5.416;2024-03-08T03:17:47;101870.50;;;0.85;100.00
76866;BME280;66647;52.124;5.416;2024-03-08T03:23:39;101862.50;;;0.78;100.00
76866;BME280;66647;52.124;5.416;2024-03-08T03:26:06;101861.91;;;0.76;100.00
76866;BME280;66647;52.124;5.416;2024-03-08T03:29:11;101872.94;;;0.75;100.00
76866;BME280;66647;52.124;5.416;2024-03-08T03:31:38;101863.44;;;0.72;100.00
76866;BME280;66647;52.124;5.416;2024-03-08T03:34:08;101855.00;;;0.68;100.00
76866;BME280;66647;52.124;5.416;2024-03-08T03:36:47;101858.75;;;0.67;100.00
76866;BME280;66647;52.124;5.416;2024-03-08T03:39:16;101860.84;;;0.65;100.00
76866;BME280;66647;52.124;5.416;2024-03-08T03:41:43;101857.84;;;0.62;100.00
76866;BME280;66647;52.124;5.416;2024-03-08T03:44:13;101851.03;;;0.59;100.00
76866;BME280;66647;52.124;5.416;2024-03-08T03:46:45;101850.22;;;0.59;100.00
76866;BME280;66647;52.124;5.416;2024-03-08T03:49:36;101846.69;;;0.58;100.00
76866;BME280;66647;52.124;5.416;2024-03-08T03:52:06;101849.63;;;0.57;100.00
76866;BME280;66647;52.124;5.416;2024-03-08T03:54:36;101847.97;;;0.56;100.00
76866;BME280;66647;52.124;5.416;2024-03-08T03:57:05;101845.50;;;0.54;100.00
76866;BME280;66647;52.124;5.416;2024-03-08T03:59:37;101843.88;;;0.53;100.00
76866;BME280;66647;52.124;5.416;2024-03-08T04:02:04;101838.69;;;0.52;100.00
76866;BME280;66647;52.124;5.416;2024-03-08T04:04:39;101838.69;;;0.52;100.00
76866;BME280;66647;52.124;5.416;2024-03-08T04:07:09;101845.75;;;0.53;100.00
76866;BME280;66647;52.124;5.416;2024-03-08T04:09:53;101839.16;;;0.49;100.00
76866;BME280;66647;52.124;5.416;2024-03-08T04:12:20;101838.34;;;0.48;100.00
76866;BME280;66647;52.124;5.416;2024-03-08T04:14:50;101841.03;;;0.48;100.00
76866;BME280;66647;52.124;5.416;2024-03-08T04:17:16;101829.91;;;0.45;100.00
76866;BME280;66647;52.124;5.416;2024-03-08T04:19:45;101823.44;;;0.46;100.00
76866;BME280;66647;52.124;5.416;2024-03-08T04:22:12;101828.59;;;0.47;100.00
76866;BME280;66647;52.124;5.416;2024-03-08T04:25:18;101829.66;;;0.46;100.00
76866;BME280;66647;52.124;5.416;2024-03-08T04:27:46;101822.03;;;0.43;100.00
76866;BME280;66647;52.124;5.416;2024-03-08T04:30:14;101824.72;;;0.43;100.00
76866;BME280;66647;52.124;5.416;2024-03-08T04:32:41;101824.16;;;0.41;100.00
76866;BME280;66647;52.124;5.416;2024-03-08T04:35:10;101820.63;;;0.41;100.00
76866;BME280;66647;52.124;5.416;2024-03-08T04:37:46;101817.34;;;0.39;100.00
76866;BME280;66647;52.124;5.416;2024-03-08T04:40:13;101819.44;;;0.37;100.00
76866;BME280;66647;52.124;5.416;2024-03-08T04:42:40;101812.19;;;0.37;100.00
76866;BME280;66647;52.124;5.416;2024-03-08T04:45:48;101811.00;;;0.33;100.00
76866;BME280;66647;52.124;5.416;2024-03-08T04:48:15;101820.72;;;0.34;100.00
76866;BME280;66647;52.124;5.416;2024-03-08T04:50:42;101809.38;;;0.32;100.00
76866;BME280;66647;52.124;5.416;2024-03-08T04:53:11;101805.03;;;0.31;100.00
76866;BME280;66647;52.124;5.416;2024-03-08T04:55:37;101805.03;;;0.31;100.00
76866;BME280;66647;52.124;5.416;2024-03-08T04:58:04;101806.09;;;0.30;100.00
76866;BME280;66647;52.124;5.416;2024-03-08T05:00:36;101807.97;;;0.29;100.00
76866;BME280;66647;52.124;5.416;2024-03-08T05:03:06;101796.38;;;0.29;100.00
76866;BME280;66647;52.124;5.416;2024-03-08T05:05:42;101798.47;;;0.27;100.00
76866;BME280;66647;52.124;5.416;2024-03-08T05:08:12;101803.63;;;0.28;100.00
76866;BME280;66647;52.124;5.416;2024-03-08T05:11:04;101800.94;;;0.28;100.00
76866;BME280;66647;52.124;5.416;2024-03-08T05:13:34;101800.56;;;0.25;100.00
76866;BME280;66647;52.124;5.416;2024-03-08T05:16:04;101802.69;;;0.23;100.00
76866;BME280;66647;52.124;5.416;2024-03-08T05:18:33;101797.53;;;0.21;100.00
76866;BME280;66647;52.124;5.416;2024-03-08T05:21:03;101793.19;;;0.20;100.00
76866;BME280;66647;52.124;5.416;2024-03-08T05:23:30;101803.16;;;0.20;100.00
76866;BME280;66647;52.124;5.416;2024-03-08T05:26:01;101790.94;;;0.17;100.00
76866;BME280;66647;52.124;5.416;2024-03-08T05:32:39;101787.91;;;0.14;100.00
76866;BME280;66647;52.124;5.416;2024-03-08T05:35:11;101791.41;;;0.14;100.00
76866;BME280;66647;52.124;5.416;2024-03-08T05:37:42;101786.25;;;0.13;100.00
76866;BME280;66647;52.124;5.416;2024-03-08T05:40:27;101787.06;;;0.13;100.00
76866;BME280;66647;52.124;5.416;2024-03-08T05:42:58;101784.03;;;0.10;100.00
76866;BME280;66647;52.124;5.416;2024-03-08T05:45:31;101780.50;;;0.09;100.00
76866;BME280;66647;52.124;5.416;2024-03-08T05:47:58;101781.56;;;0.08;100.00
76866;BME280;66647;52.124;5.416;2024-03-08T05:50:37;101785.31;;;0.07;100.00
76866;BME280;66647;52.124;5.416;2024-03-08T06:01:47;101771.47;;;0.04;100.00
76866;BME280;66647;52.124;5.416;2024-03-08T06:05:41;101766.06;;;0.04;100.00
76866;BME280;66647;52.124;5.416;2024-03-08T06:20:38;101758.22;;;0.02;100.00
76866;BME280;66647;52.124;5.416;2024-03-08T06:26:28;101757.16;;;0.03;100.00
76866;BME280;66647;52.124;5.416;2024-03-08T06:28:57;101755.53;;;0.02;100.00
76866;BME280;66647;52.124;5.416;2024-03-08T06:39:39;101761.41;;;0.11;100.00
76866;BME280;66647;52.124;5.416;2024-03-08T06:42:17;101750.16;;;0.14;100.00
76866;BME280;66647;52.124;5.416;2024-03-08T06:44:46;101748.03;;;0.16;100.00
76866;BME280;66647;52.124;5.416;2024-03-08T06:47:16;101745.69;;;0.19;100.00
76866;BME280;66647;52.124;5.416;2024-03-08T06:50:47;101742.06;;;0.25;100.00
76866;BME280;66647;52.124;5.416;2024-03-08T06:53:17;101751.34;;;0.29;100.00
76866;BME280;66647;52.124;5.416;2024-03-08T07:02:31;101749.78;;;0.45;100.00
76866;BME280;66647;52.124;5.416;2024-03-08T07:05:27;101746.97;;;0.52;100.00
76866;BME280;66647;52.124;5.416;2024-03-08T07:23:01;101735.91;;;1.05;100.00
76866;BME280;66647;52.124;5.416;2024-03-08T07:26:09;101734.22;;;1.16;99.88
76866;BME280;66647;52.124;5.416;2024-03-08T07:32:38;101716.00;;;1.40;98.74
76866;BME280;66647;52.124;5.416;2024-03-08T07:35:06;101715.22;;;1.56;97.91
76866;BME280;66647;52.124;5.416;2024-03-08T07:37:34;101722.38;;;1.62;96.82
76866;BME280;66647;52.124;5.416;2024-03-08T07:40:04;101717.50;;;1.64;96.94
76866;BME280;66647;52.124;5.416;2024-03-08T07:42:30;101707.59;;;1.69;96.14
76866;BME280;66647;52.124;5.416;2024-03-08T07:49:03;101707.56;;;2.20;94.53
76866;BME280;66647;52.124;5.416;2024-03-08T07:51:36;101704.66;;;2.43;92.70
76866;BME280;66647;52.124;5.416;2024-03-08T07:55:18;101699.84;;;2.94;90.27
76866;BME280;66647;52.124;5.416;2024-03-08T07:58:24;101692.91;;;3.30;87.20
76866;BME280;66647;52.124;5.416;2024-03-08T08:01:20;101696.19;;;4.01;87.05
76866;BME280;66647;52.124;5.416;2024-03-08T08:03:50;101684.97;;;4.29;83.39
76866;BME280;66647;52.124;5.416;2024-03-08T08:06:23;101684.84;;;4.56;82.55
76866;BME280;66647;52.124;5.416;2024-03-08T08:13:18;101674.72;;;5.55;75.06
76866;BME280;66647;52.124;5.416;2024-03-08T08:16:13;101666.56;;;6.05;74.64
76866;BME280;66647;52.124;5.416;2024-03-08T08:19:43;101663.66;;;6.66;71.77
76866;BME280;66647;52.124;5.416;2024-03-08T08:26:47;101663.66;;;6.61;70.79
76866;BME280;66647;52.124;5.416;2024-03-08T08:29:14;101656.66;;;7.38;67.91
76866;BME280;66647;52.124;5.416;2024-03-08T08:32:01;101657.44;;;7.78;65.91
76866;BME280;66647;52.124;5.416;2024-03-08T08:37:41;101649.72;;;8.38;62.37
76866;BME280;66647;52.124;5.416;2024-03-08T08:40:11;101648.19;;;8.51;61.09
76866;BME280;66647;52.124;5.416;2024-03-08T08:42:51;101645.00;;;8.67;61.31
76866;BME280;66647;52.124;5.416;2024-03-08T08:45:52;101641.09;;;8.50;59.61
76866;BME280;66647;52.124;5.416;2024-03-08T08:49:19;101634.28;;;8.71;60.97
76866;BME280;66647;52.124;5.416;2024-03-08T08:52:09;101623.25;;;9.14;58.54
76866;BME280;66647;52.124;5.416;2024-03-08T08:55:08;101622.91;;;8.83;58.57
76866;BME280;66647;52.124;5.416;2024-03-08T08:58:09;101623.69;;;9.21;58.28
76866;BME280;66647;52.124;5.416;2024-03-08T09:00:45;101621.97;;;9.43;57.93
76866;BME280;66647;52.124;5.416;2024-03-08T09:03:45;101611.97;;;9.53;57.90
76866;BME280;66647;52.124;5.416;2024-03-08T09:06:45;101610.47;;;10.34;55.77
76866;BME280;66647;52.124;5.416;2024-03-08T09:20:45;101587.38;;;10.07;54.23
76866;BME280;66647;52.124;5.416;2024-03-08T09:31:43;101564.81;;;11.24;54.82
76866;BME280;66647;52.124;5.416;2024-03-08T09:35:11;101581.28;;;11.01;51.78
76866;BME280;66647;52.124;5.416;2024-03-08T09:49:36;101553.09;;;11.63;50.49
76866;BME280;66647;52.124;5.416;2024-03-08T09:52:15;101540.94;;;11.55;52.92
76866;BME280;66647;52.124;5.416;2024-03-08T09:55:42;101538.31;;;12.38;50.96
76866;BME280;66647;52.124;5.416;2024-03-08T09:59:02;101531.88;;;12.51;50.32
76866;BME280;66647;52.124;5.416;2024-03-08T10:01:32;101527.22;;;12.60;49.40
76866;BME280;66647;52.124;5.416;2024-03-08T10:07:50;101521.06;;;12.98;48.85
76866;BME280;66647;52.124;5.416;2024-03-08T10:10:41;101504.22;;;12.99;49.23
76866;BME280;66647;52.124;5.416;2024-03-08T10:13:13;101509.69;;;13.25;49.07
76866;BME280;66647;52.124;5.416;2024-03-08T10:16:29;101497.22;;;13.19;50.14
76866;BME280;66647;52.124;5.416;2024-03-08T10:19:38;101495.81;;;13.60;47.29
76866;BME280;66647;52.124;5.416;2024-03-08T10:22:15;101489.91;;;13.32;48.18
76866;BME280;66647;52.124;5.416;2024-03-08T10:24:46;101485.47;;;13.48;48.00
76866;BME280;66647;52.124;5.416;2024-03-08T10:27:20;101479.94;;;13.57;47.07
76866;BME280;66647;52.124;5.416;2024-03-08T10:29:48;101467.34;;;13.38;47.05
76866;BME280;66647;52.124;5.416;2024-03-08T10:32:41;101462.50;;;13.35;46.88
76866;BME280;66647;52.124;5.416;2024-03-08T10:35:15;101462.94;;;13.46;45.79
76866;BME280;66647;52.124;5.416;2024-03-08T10:40:38;101469.50;;;13.24;46.52
76866;BME280;66647;52.124;5.416;2024-03-08T10:43:24;101459.63;;;13.23;46.85
76866;BME280;66647;52.124;5.416;2024-03-08T10:49:17;101439.13;;;13.79;46.02
76866;BME280;66647;52.124;5.416;2024-03-08T10:51:45;101438.53;;;13.65;47.07
76866;BME280;66647;52.124;5.416;2024-03-08T10:54:16;101434.34;;;14.18;46.76
76866;BME280;66647;52.124;5.416;2024-03-08T10:56:48;101428.16;;;14.42;44.60
76866;BME280;66647;52.124;5.416;2024-03-08T10:59:25;101427.34;;;14.21;44.06
76866;BME280;66647;52.124;5.416;2024-03-08T11:02:19;101412.00;;;13.90;46.34
76866;BME280;66647;52.124;5.416;2024-03-08T11:05:13;101403.50;;;14.37;45.57
76866;BME280;66647;52.124;5.416;2024-03-08T11:14:42;101391.53;;;14.33;42.93
76866;BME280;66647;52.124;5.416;2024-03-08T11:17:09;101384.28;;;14.07;43.89
76866;BME280;66647;52.124;5.416;2024-03-08T11:20:02;101376.47;;;14.51;45.40
76866;BME280;66647;52.124;5.416;2024-03-08T11:22:52;101367.63;;;14.91;43.06
76866;BME280;66647;52.124;5.416;2024-03-08T11:34:25;101343.81;;;15.10;42.41
76866;BME280;66647;52.124;5.416;2024-03-08T11:41:29;101330.56;;;15.16;42.84
76866;BME280;66647;52.124;5.416;2024-03-08T11:44:03;101323.44;;;15.39;41.53
76866;BME280;66647;52.124;5.416;2024-03-08T11:46:42;101318.72;;;15.03;39.62
76866;BME280;66647;52.124;5.416;2024-03-08T11:49:55;101318.91;;;14.74;41.49
76866;BME280;66647;52.124;5.416;2024-03-08T11:52:22;101315.38;;;15.10;41.75
76866;BME280;66647;52.124;5.416;2024-03-08T11:54:56;101308.91;;;14.82;40.87
76866;BME280;66647;52.124;5.416;2024-03-08T12:14:43;101272.31;;;14.60;41.50
76866;BME280;66647;52.124;5.416;2024-03-08T12:42:46;101230.59;;;12.45;45.10
76866;BME280;66647;52.124;5.416;2024-03-08T12:45:56;101239.47;;;12.51;45.60
76866;BME280;66647;52.124;5.416;2024-03-08T12:52:10;101228.25;;;12.18;46.13
76866;BME280;66647;52.124;5.416;2024-03-08T12:55:01;101224.03;;;12.29;45.92
76866;BME280;66647;52.124;5.416;2024-03-08T12:58:28;101214.19;;;12.10;46.94
76866;BME280;66647;52.124;5.416;2024-03-08T13:05:29;101229.63;;;12.41;45.83
76866;BME280;66647;52.124;5.416;2024-03-08T13:08:08;101207.88;;;12.10;45.26
76866;BME280;66647;52.124;5.416;2024-03-08T13:18:37;101199.16;;;12.08;47.27
76866;BME280;66647;52.124;5.416;2024-03-08T13:26:33;101190.75;;;12.04;48.33
76866;BME280;66647;52.124;5.416;2024-03-08T14:29:34;101097.16;;;11.28;50.50
76866;BME280;66647;52.124;5.416;2024-03-08T14:32:05;101092.47;;;11.29;49.86
76866;BME280;66647;52.124;5.416;2024-03-08T14:37:40;101083.59;;;11.32;50.33
76866;BME280;66647;52.124;5.416;2024-03-08T14:44:00;101061.16;;;11.04;51.12
76866;BME280;66647;52.124;5.416;2024-03-08T14:46:29;101066.66;;;11.04;51.36
76866;BME280;66647;52.124;5.416;2024-03-08T14:49:12;101065.97;;;11.07;51.60
76866;BME280;66647;52.124;5.416;2024-03-08T14:55:55;101053.56;;;10.84;51.40
76866;BME280;66647;52.124;5.416;2024-03-08T15:01:46;101032.09;;;10.60;51.62
76866;BME280;66647;52.124;5.416;2024-03-08T15:09:27;101025.47;;;10.52;52.42
76866;BME280;66647;52.124;5.416;2024-03-08T15:12:37;101031.09;;;10.47;52.10
76866;BME280;66647;52.124;5.416;2024-03-08T15:15:59;101017.56;;;10.51;52.59
76866;BME280;66647;52.124;5.416;2024-03-08T15:23:01;101034.31;;;10.32;52.87
76866;BME280;66647;52.124;5.416;2024-03-08T15:41:37;100982.72;;;10.25;54.41
76866;BME280;66647;52.124;5.416;2024-03-08T15:46:59;100979.75;;;10.13;54.91
76866;BME280;66647;52.124;5.416;2024-03-08T15:49:30;100983.78;;;10.07;54.90
76866;BME280;66647;52.124;5.416;2024-03-08T15:52:04;100977.97;;;10.00;55.01
76866;BME280;66647;52.124;5.416;2024-03-08T15:54:37;100980.38;;;10.01;55.18
76866;BME280;66647;52.124;5.416;2024-03-08T15:57:33;100968.28;;;9.94;54.62
76866;BME280;66647;52.124;5.416;2024-03-08T16:00:29;100979.69;;;9.87;55.10
76866;BME280;66647;52.124;5.416;2024-03-08T16:03:54;100955.34;;;9.86;55.03
76866;BME280;66647;52.124;5.416;2024-03-08T16:10:18;100957.75;;;9.70;54.81
76866;BME280;66647;52.124;5.416;2024-03-08T16:13:17;100960.66;;;9.73;55.61
76866;BME280;66647;52.124;5.416;2024-03-08T16:15:55;100957.13;;;9.73;55.83
76866;BME280;66647;52.124;5.416;2024-03-08T16:22:44;100954.66;;;9.63;55.85
76866;BME280;66647;52.124;5.416;2024-03-08T16:25:21;100953.66;;;9.59;55.64
76866;BME280;66647;52.124;5.416;2024-03-08T16:27:52;100947.69;;;9.57;55.88
76866;BME280;66647;52.124;5.416;2024-03-08T16:30:51;100953.63;;;9.41;55.91
76866;BME280;66647;52.124;5.416;2024-03-08T16:33:26;100950.69;;;9.38;55.81
76866;BME280;66647;52.124;5.416;2024-03-08T16:35:56;100963.56;;;9.37;55.89
76866;BME280;66647;52.124;5.416;2024-03-08T16:38:40;100955.81;;;9.31;55.79
76866;BME280;66647;52.124;5.416;2024-03-08T17:16:27;100953.94;;;8.64;58.47
76866;BME280;66647;52.124;5.416;2024-03-08T17:20:12;100956.47;;;8.61;58.33
76866;BME280;66647;52.124;5.416;2024-03-08T17:22:55;100948.09;;;8.57;59.15
76866;BME280;66647;52.124;5.416;2024-03-08T17:25:29;100943.66;;;8.48;59.08
76866;BME280;66647;52.124;5.416;2024-03-08T17:32:27;100954.13;;;8.32;59.96
76866;BME280;66647;52.124;5.416;2024-03-08T17:35:39;100947.66;;;8.28;59.87
76866;BME280;66647;52.124;5.416;2024-03-08T17:42:09;100960.72;;;8.17;60.64
76866;BME280;66647;52.124;5.416;2024-03-08T17:44:36;100947.50;;;8.11;60.72
76866;BME280;66647;52.124;5.416;2024-03-08T17:47:04;100946.50;;;8.06;60.30
76866;BME280;66647;52.124;5.416;2024-03-08T17:53:08;100940.13;;;7.97;61.55
76866;BME280;66647;52.124;5.416;2024-03-08T17:55:37;100941.56;;;7.95;61.02
76866;BME280;66647;52.124;5.416;2024-03-08T17:58:08;100941.34;;;7.91;61.15
76866;BME280;66647;52.124;5.416;2024-03-08T18:00:53;100939.53;;;7.87;61.30
76866;BME280;66647;52.124;5.416;2024-03-08T18:03:20;100940.75;;;7.81;61.76
76866;BME280;66647;52.124;5.416;2024-03-08T18:06:20;100952.31;;;7.78;61.77
76866;BME280;66647;52.124;5.416;2024-03-08T18:09:07;100952.72;;;7.71;61.98
76866;BME280;66647;52.124;5.416;2024-03-08T18:11:41;100941.28;;;7.69;61.76
76866;BME280;66647;52.124;5.416;2024-03-08T18:14:42;100943.31;;;7.63;61.67
76866;BME280;66647;52.124;5.416;2024-03-08T18:20:46;100930.66;;;7.54;62.40
76866;BME280;66647;52.124;5.416;2024-03-08T18:23:15;100925.63;;;7.47;62.69
76866;BME280;66647;52.124;5.416;2024-03-08T18:25:43;100927.84;;;7.45;63.85
76866;BME280;66647;52.124;5.416;2024-03-08T18:35:32;100917.94;;;7.35;64.19
76866;BME280;66647;52.124;5.416;2024-03-08T18:37:59;100920.75;;;7.30;64.06
76866;BME280;66647;52.124;5.416;2024-03-08T18:53:16;100915.50;;;7.06;65.52
76866;BME280;66647;52.124;5.416;2024-03-08T18:55:46;100910.03;;;7.06;65.86
76866;BME280;66647;52.124;5.416;2024-03-08T18:58:15;100913.66;;;7.02;65.91
76866;BME280;66647;52.124;5.416;2024-03-08T19:01:19;100914.25;;;6.99;66.15
76866;BME280;66647;52.124;5.416;2024-03-08T19:04:26;100903.94;;;6.96;66.13
76866;BME280;66647;52.124;5.416;2024-03-08T19:07:18;100899.09;;;6.93;66.13
76866;BME280;66647;52.124;5.416;2024-03-08T19:14:11;100892.72;;;6.84;66.98
76866;BME280;66647;52.124;5.416;2024-03-08T19:32:33;100869.75;;;6.57;68.70
76866;BME280;66647;52.124;5.416;2024-03-08T19:38:59;100863.56;;;6.52;69.20
76866;BME280;66647;52.124;5.416;2024-03-08T19:41:51;100860.66;;;6.48;69.07
76866;BME280;66647;52.124;5.416;2024-03-08T19:51:48;100853.16;;;6.40;70.01
76866;BME280;66647;52.124;5.416;2024-03-08T19:54:37;100863.03;;;6.36;70.38
76866;BME280;66647;52.124;5.416;2024-03-08T19:57:22;100859.28;;;6.32;70.81
76866;BME280;66647;52.124;5.416;2024-03-08T20:06:47;100864.34;;;6.20;71.28
76866;BME280;66647;52.124;5.416;2024-03-08T20:13:12;100857.91;;;6.16;71.65
76866;BME280;66647;52.124;5.416;2024-03-08T20:15:43;100856.28;;;6.15;71.70
76866;BME280;66647;52.124;5.416;2024-03-08T20:18:46;100856.16;;;6.06;72.31
76866;BME280;66647;52.124;5.416;2024-03-08T20:21:15;100848.19;;;6.10;71.86
76866;BME280;66647;52.124;5.416;2024-03-08T20:23:44;100849.31;;;6.09;72.06
76866;BME280;66647;52.124;5.416;2024-03-08T20:26:37;100850.41;;;6.07;72.12
76866;BME280;66647;52.124;5.416;2024-03-08T20:29:33;100851.81;;;6.05;72.71
76866;BME280;66647;52.124;5.416;2024-03-08T20:32:19;100841.50;;;6.02;73.06
76866;BME280;66647;52.124;5.416;2024-03-08T20:34:49;100841.56;;;5.97;72.65
76866;BME280;66647;52.124;5.416;2024-03-08T20:37:42;100846.72;;;5.98;73.52
76866;BME280;66647;52.124;5.416;2024-03-08T20:40:15;100835.03;;;5.98;73.14
76866;BME280;66647;52.124;5.416;2024-03-08T20:42:45;100829.66;;;5.93;73.24
76866;BME280;66647;52.124;5.416;2024-03-08T20:49:11;100835.75;;;5.85;74.32
76866;BME280;66647;52.124;5.416;2024-03-08T20:51:45;100835.53;;;5.81;74.26
76866;BME280;66647;52.124;5.416;2024-03-08T20:57:38;100819.56;;;5.74;74.30
76866;BME280;66647;52.124;5.416;2024-03-08T21:01:20;100815.00;;;5.70;74.76
76866;BME280;66647;52.124;5.416;2024-03-08T21:03:48;100816.91;;;5.69;74.82
76866;BME280;66647;52.124;5.416;2024-03-08T22:04:44;100798.97;;;5.07;80.12
